sensor_id;sensor_type;location;lat;lon;timestamp;P1;durP1;ratioP1;P2;durP2;ratioP2
13408;SDS011;6775;49.574;11.170;2024-01-30T00:01:32;7.20;;;5.07;;
13408;SDS011;6775;49.574;11.170;2024-01-30T00:04:00;8.27;;;5.13;;
13408;SDS011;6775;49.574;11.170;2024-01-30T00:06:30;6.73;;;4.57;;
13408;SDS011;6775;49.574;11.170;2024-01-30T00:08:58;12.67;;;5.27;;
13408;SDS011;6775;49.574;11.170;2024-01-30T00:11:27;6.27;;;4.57;;
13408;SDS011;6775;49.574;11.170;2024-01-30T00:13:55;8.93;;;4.60;;
13408;SDS011;6775;49.574;11.170;2024-01-30T00:16:24;6.07;;;4.80;;
13408;SDS011;6775;49.574;11.170;2024-01-30T00:18:53;6.40;;;4.53;;
13408;SDS011;6775;49.574;11.170;2024-01-30T00:21:21;6.37;;;4.60;;
13408;SDS011;6775;49.574;11.170;2024-01-30T00:23:51;6.80;;;4.27;;
13408;SDS011;6775;49.574;11.170;2024-01-30T00:26:20;7.03;;;4.27;;
13408;SDS011;6775;49.574;11.170;2024-01-30T00:28:48;7.03;;;4.10;;
13408;SDS011;6775;49.574;11.170;2024-01-30T00:31:16;5.77;;;3.50;;
13408;SDS011;6775;49.574;11.170;2024-01-30T00:33:44;6.63;;;4.27;;
13408;SDS011;6775;49.574;11.170;2024-01-30T00:36:13;4.87;;;3.60;;
13408;SDS011;6775;49.574;11.170;2024-01-30T00:38:41;6.07;;;3.53;;
13408;SDS011;6775;49.574;11.170;2024-01-30T00:41:10;4.20;;;3.40;;
13408;SDS011;6775;49.574;11.170;2024-01-30T00:43:38;4.57;;;3.33;;
13408;SDS011;6775;49.574;11.170;2024-01-30T00:46:07;4.20;;;3.40;;
13408;SDS011;6775;49.574;11.170;2024-01-30T00:48:35;7.30;;;3.60;;
13408;SDS011;6775;49.574;11.170;2024-01-30T00:51:03;6.60;;;3.57;;
13408;SDS011;6775;49.574;11.170;2024-01-30T00:53:31;5.97;;;3.37;;
13408;SDS011;6775;49.574;11.170;2024-01-30T00:56:00;5.07;;;3.23;;
13408;SDS011;6775;49.574;11.170;2024-01-30T00:58:29;6.60;;;3.57;;
13408;SDS011;6775;49.574;11.170;2024-01-30T01:00:57;5.53;;;3.03;;
13408;SDS011;6775;49.574;11.170;2024-01-30T01:03:26;6.20;;;2.97;;
13408;SDS011;6775;49.574;11.170;2024-01-30T01:05:54;3.30;;;3.00;;
13408;SDS011;6775;49.574;11.170;2024-01-30T01:08:22;4.97;;;3.53;;
13408;SDS011;6775;49.574;11.170;2024-01-30T01:10:51;6.33;;;3.53;;
13408;SDS011;6775;49.574;11.170;2024-01-30T01:13:20;4.13;;;3.20;;
13408;SDS011;6775;49.574;11.170;2024-01-30T01:15:49;4.50;;;3.20;;
13408;SDS011;6775;49.574;11.170;2024-01-30T01:18:17;4.50;;;2.93;;
13408;SDS011;6775;49.574;11.170;2024-01-30T01:20:45;3.67;;;2.80;;
13408;SDS011;6775;49.574;11.170;2024-01-30T01:23:14;6.90;;;3.50;;
13408;SDS011;6775;49.574;11.170;2024-01-30T01:25:42;4.70;;;3.10;;
13408;SDS011;6775;49.574;11.170;2024-01-30T01:28:10;5.30;;;2.67;;
13408;SDS011;6775;49.574;11.170;2024-01-30T01:30:39;4.83;;;2.80;;
13408;SDS011;6775;49.574;11.170;2024-01-30T01:33:08;3.47;;;2.40;;
13408;SDS011;6775;49.574;11.170;2024-01-30T01:35:37;3.67;;;2.63;;
13408;SDS011;6775;49.574;11.170;2024-01-30T01:38:05;3.97;;;3.00;;
13408;SDS011;6775;49.574;11.170;2024-01-30T01:40:34;3.03;;;2.60;;
13408;SDS011;6775;49.574;11.170;2024-01-30T01:43:02;5.00;;;2.90;;
13408;SDS011;6775;49.574;11.170;2024-01-30T01:45:32;3.27;;;2.27;;
13408;SDS011;6775;49.574;11.170;2024-01-30T01:48:00;4.73;;;2.87;;
13408;SDS011;6775;49.574;11.170;2024-01-30T01:50:30;5.63;;;2.87;;
13408;SDS011;6775;49.574;11.170;2024-01-30T01:52:58;2.67;;;2.37;;
13408;SDS011;6775;49.574;11.170;2024-01-30T01:55:27;3.73;;;2.60;;
13408;SDS011;6775;49.574;11.170;2024-01-30T01:57:58;3.40;;;2.80;;
13408;SDS011;6775;49.574;11.170;2024-01-30T02:00:27;3.47;;;2.40;;
13408;SDS011;6775;49.574;11.170;2024-01-30T02:02:56;3.13;;;2.53;;
13408;SDS011;6775;49.574;11.170;2024-01-30T02:05:24;3.13;;;2.47;;
13408;SDS011;6775;49.574;11.170;2024-01-30T02:07:55;4.53;;;2.30;;
13408;SDS011;6775;49.574;11.170;2024-01-30T02:10:24;3.23;;;2.17;;
13408;SDS011;6775;49.574;11.170;2024-01-30T02:12:52;3.67;;;2.40;;
13408;SDS011;6775;49.574;11.170;2024-01-30T02:15:20;3.80;;;2.60;;
13408;SDS011;6775;49.574;11.170;2024-01-30T02:17:48;4.00;;;2.13;;
13408;SDS011;6775;49.574;11.170;2024-01-30T02:20:17;3.17;;;2.20;;
13408;SDS011;6775;49.574;11.170;2024-01-30T02:22:47;3.17;;;2.60;;
13408;SDS011;6775;49.574;11.170;2024-01-30T02:25:16;4.97;;;3.00;;
13408;SDS011;6775;49.574;11.170;2024-01-30T02:27:44;4.23;;;2.90;;
13408;SDS011;6775;49.574;11.170;2024-01-30T02:30:13;6.27;;;3.53;;
13408;SDS011;6775;49.574;11.170;2024-01-30T02:32:41;3.73;;;3.10;;
13408;SDS011;6775;49.574;11.170;2024-01-30T02:35:09;5.57;;;2.93;;
13408;SDS011;6775;49.574;11.170;2024-01-30T02:37:37;3.50;;;2.47;;
13408;SDS011;6775;49.574;11.170;2024-01-30T02:40:07;2.93;;;2.50;;
13408;SDS011;6775;49.574;11.170;2024-01-30T02:42:36;4.20;;;2.70;;
13408;SDS011;6775;49.574;11.170;2024-01-30T02:45:04;4.13;;;2.90;;
13408;SDS011;6775;49.574;11.170;2024-01-30T02:47:34;3.70;;;2.70;;
13408;SDS011;6775;49.574;11.170;2024-01-30T02:50:03;6.23;;;3.37;;
13408;SDS011;6775;49.574;11.170;2024-01-30T02:52:33;5.53;;;3.50;;
13408;SDS011;6775;49.574;11.170;2024-01-30T02:55:01;6.63;;;3.20;;
13408;SDS011;6775;49.574;11.170;2024-01-30T02:57:31;6.23;;;4.17;;
13408;SDS011;6775;49.574;11.170;2024-01-30T03:00:00;5.97;;;3.77;;
13408;SDS011;6775;49.574;11.170;2024-01-30T03:02:30;6.13;;;3.47;;
13408;SDS011;6775;49.574;11.170;2024-01-30T03:04:58;8.10;;;3.70;;
13408;SDS011;6775;49.574;11.170;2024-01-30T03:07:27;6.93;;;4.23;;
13408;SDS011;6775;49.574;11.170;2024-01-30T03:09:55;6.63;;;3.93;;
13408;SDS011;6775;49.574;11.170;2024-01-30T03:12:23;7.40;;;4.07;;
13408;SDS011;6775;49.574;11.170;2024-01-30T03:14:53;5.10;;;3.30;;
13408;SDS011;6775;49.574;11.170;2024-01-30T03:17:21;5.80;;;3.87;;
13408;SDS011;6775;49.574;11.170;2024-01-30T03:19:50;6.50;;;3.47;;
13408;SDS011;6775;49.574;11.170;2024-01-30T03:22:19;6.90;;;3.53;;
13408;SDS011;6775;49.574;11.170;2024-01-30T03:24:47;6.40;;;3.73;;
13408;SDS011;6775;49.574;11.170;2024-01-30T03:27:15;5.07;;;3.37;;
13408;SDS011;6775;49.574;11.170;2024-01-30T03:29:43;4.67;;;3.17;;
13408;SDS011;6775;49.574;11.170;2024-01-30T03:32:13;7.13;;;3.40;;
13408;SDS011;6775;49.574;11.170;2024-01-30T03:34:41;3.73;;;2.97;;
13408;SDS011;6775;49.574;11.170;2024-01-30T03:37:09;4.80;;;3.50;;
13408;SDS011;6775;49.574;11.170;2024-01-30T03:39:37;4.03;;;2.87;;
13408;SDS011;6775;49.574;11.170;2024-01-30T03:42:06;4.37;;;3.20;;
13408;SDS011;6775;49.574;11.170;2024-01-30T03:44:34;4.40;;;3.10;;
13408;SDS011;6775;49.574;11.170;2024-01-30T03:47:02;4.97;;;3.23;;
13408;SDS011;6775;49.574;11.170;2024-01-30T03:49:32;5.67;;;3.10;;
13408;SDS011;6775;49.574;11.170;2024-01-30T03:52:00;4.33;;;2.97;;
13408;SDS011;6775;49.574;11.170;2024-01-30T03:54:28;3.83;;;2.97;;
13408;SDS011;6775;49.574;11.170;2024-01-30T03:56:56;3.37;;;3.07;;
13408;SDS011;6775;49.574;11.170;2024-01-30T03:59:24;5.43;;;3.10;;
13408;SDS011;6775;49.574;11.170;2024-01-30T04:01:53;3.23;;;2.77;;
13408;SDS011;6775;49.574;11.170;2024-01-30T04:04:22;5.33;;;3.30;;
13408;SDS011;6775;49.574;11.170;2024-01-30T04:06:51;5.40;;;3.00;;
13408;SDS011;6775;49.574;11.170;2024-01-30T04:09:20;6.03;;;3.10;;
13408;SDS011;6775;49.574;11.170;2024-01-30T04:11:48;5.00;;;3.20;;
13408;SDS011;6775;49.574;11.170;2024-01-30T04:14:16;4.07;;;3.13;;
13408;SDS011;6775;49.574;11.170;2024-01-30T04:16:46;4.10;;;3.13;;
13408;SDS011;6775;49.574;11.170;2024-01-30T04:19:14;3.30;;;3.00;;
13408;SDS011;6775;49.574;11.170;2024-01-30T04:21:42;5.43;;;3.27;;
13408;SDS011;6775;49.574;11.170;2024-01-30T04:24:12;5.17;;;3.30;;
13408;SDS011;6775;49.574;11.170;2024-01-30T04:26:43;4.90;;;3.20;;
13408;SDS011;6775;49.574;11.170;2024-01-30T04:29:11;4.87;;;3.17;;
13408;SDS011;6775;49.574;11.170;2024-01-30T04:31:39;5.07;;;2.77;;
13408;SDS011;6775;49.574;11.170;2024-01-30T04:34:08;5.90;;;3.43;;
13408;SDS011;6775;49.574;11.170;2024-01-30T04:36:36;4.77;;;3.37;;
13408;SDS011;6775;49.574;11.170;2024-01-30T04:39:04;6.40;;;3.30;;
13408;SDS011;6775;49.574;11.170;2024-01-30T04:41:33;5.10;;;3.17;;
13408;SDS011;6775;49.574;11.170;2024-01-30T04:44:02;5.77;;;3.57;;
13408;SDS011;6775;49.574;11.170;2024-01-30T04:46:30;5.60;;;3.47;;
13408;SDS011;6775;49.574;11.170;2024-01-30T04:49:00;6.77;;;3.33;;
13408;SDS011;6775;49.574;11.170;2024-01-30T04:51:29;4.03;;;3.40;;
13408;SDS011;6775;49.574;11.170;2024-01-30T04:53:58;4.73;;;3.23;;
13408;SDS011;6775;49.574;11.170;2024-01-30T04:56:26;6.10;;;3.30;;
13408;SDS011;6775;49.574;11.170;2024-01-30T04:58:55;5.13;;;3.43;;
13408;SDS011;6775;49.574;11.170;2024-01-30T05:01:23;5.07;;;3.50;;
13408;SDS011;6775;49.574;11.170;2024-01-30T05:03:52;5.43;;;3.13;;
13408;SDS011;6775;49.574;11.170;2024-01-30T05:06:26;5.03;;;3.37;;
13408;SDS011;6775;49.574;11.170;2024-01-30T05:08:54;3.60;;;2.87;;
13408;SDS011;6775;49.574;11.170;2024-01-30T05:11:22;3.37;;;2.80;;
13408;SDS011;6775;49.574;11.170;2024-01-30T05:13:51;4.13;;;3.03;;
13408;SDS011;6775;49.574;11.170;2024-01-30T05:16:20;5.23;;;3.40;;
13408;SDS011;6775;49.574;11.170;2024-01-30T05:18:48;4.77;;;3.10;;
13408;SDS011;6775;49.574;11.170;2024-01-30T05:21:17;4.87;;;3.23;;
13408;SDS011;6775;49.574;11.170;2024-01-30T05:23:45;5.80;;;3.80;;
13408;SDS011;6775;49.574;11.170;2024-01-30T05:26:13;4.20;;;3.00;;
13408;SDS011;6775;49.574;11.170;2024-01-30T05:28:41;5.20;;;3.30;;
13408;SDS011;6775;49.574;11.170;2024-01-30T05:31:10;5.23;;;3.13;;
13408;SDS011;6775;49.574;11.170;2024-01-30T05:33:40;4.90;;;3.40;;
13408;SDS011;6775;49.574;11.170;2024-01-30T05:36:11;5.07;;;3.37;;
13408;SDS011;6775;49.574;11.170;2024-01-30T05:38:39;5.00;;;3.60;;
13408;SDS011;6775;49.574;11.170;2024-01-30T05:41:08;6.47;;;3.47;;
13408;SDS011;6775;49.574;11.170;2024-01-30T05:43:36;4.00;;;3.13;;
13408;SDS011;6775;49.574;11.170;2024-01-30T05:46:04;6.97;;;4.10;;
13408;SDS011;6775;49.574;11.170;2024-01-30T05:48:33;12.47;;;5.87;;
13408;SDS011;6775;49.574;11.170;2024-01-30T05:51:03;8.30;;;5.33;;
13408;SDS011;6775;49.574;11.170;2024-01-30T05:53:32;6.17;;;4.27;;
13408;SDS011;6775;49.574;11.170;2024-01-30T05:56:01;7.23;;;4.07;;
13408;SDS011;6775;49.574;11.170;2024-01-30T05:58:30;6.93;;;4.20;;
13408;SDS011;6775;49.574;11.170;2024-01-30T06:00:58;8.80;;;4.93;;
13408;SDS011;6775;49.574;11.170;2024-01-30T06:03:26;5.80;;;4.27;;
13408;SDS011;6775;49.574;11.170;2024-01-30T06:05:54;7.63;;;4.70;;
13408;SDS011;6775;49.574;11.170;2024-01-30T06:08:24;9.03;;;5.53;;
13408;SDS011;6775;49.574;11.170;2024-01-30T06:10:52;9.83;;;5.80;;
13408;SDS011;6775;49.574;11.170;2024-01-30T06:13:20;11.17;;;6.07;;
13408;SDS011;6775;49.574;11.170;2024-01-30T06:15:48;8.23;;;4.97;;
13408;SDS011;6775;49.574;11.170;2024-01-30T06:18:16;9.00;;;5.87;;
13408;SDS011;6775;49.574;11.170;2024-01-30T06:20:45;6.30;;;4.90;;
13408;SDS011;6775;49.574;11.170;2024-01-30T06:23:13;9.50;;;5.80;;
13408;SDS011;6775;49.574;11.170;2024-01-30T06:25:42;8.17;;;4.87;;
13408;SDS011;6775;49.574;11.170;2024-01-30T06:28:10;6.40;;;4.57;;
13408;SDS011;6775;49.574;11.170;2024-01-30T06:30:39;6.60;;;4.50;;
13408;SDS011;6775;49.574;11.170;2024-01-30T06:33:07;8.73;;;4.67;;
13408;SDS011;6775;49.574;11.170;2024-01-30T06:35:35;6.53;;;4.53;;
13408;SDS011;6775;49.574;11.170;2024-01-30T06:38:10;5.47;;;4.30;;
13408;SDS011;6775;49.574;11.170;2024-01-30T06:40:39;7.30;;;4.37;;
13408;SDS011;6775;49.574;11.170;2024-01-30T06:43:09;7.10;;;4.60;;
13408;SDS011;6775;49.574;11.170;2024-01-30T06:45:37;7.70;;;4.57;;
13408;SDS011;6775;49.574;11.170;2024-01-30T06:48:06;8.20;;;4.97;;
13408;SDS011;6775;49.574;11.170;2024-01-30T06:50:35;5.97;;;4.70;;
13408;SDS011;6775;49.574;11.170;2024-01-30T06:53:03;8.30;;;5.20;;
13408;SDS011;6775;49.574;11.170;2024-01-30T06:55:31;8.90;;;4.40;;
13408;SDS011;6775;49.574;11.170;2024-01-30T06:58:00;8.50;;;5.23;;
13408;SDS011;6775;49.574;11.170;2024-01-30T07:00:29;7.17;;;5.27;;
13408;SDS011;6775;49.574;11.170;2024-01-30T07:02:58;7.97;;;5.30;;
13408;SDS011;6775;49.574;11.170;2024-01-30T07:05:26;6.23;;;4.37;;
13408;SDS011;6775;49.574;11.170;2024-01-30T07:07:54;5.90;;;4.50;;
13408;SDS011;6775;49.574;11.170;2024-01-30T07:10:23;6.80;;;4.50;;
13408;SDS011;6775;49.574;11.170;2024-01-30T07:12:51;4.90;;;4.20;;
13408;SDS011;6775;49.574;11.170;2024-01-30T07:15:19;7.07;;;4.47;;
13408;SDS011;6775;49.574;11.170;2024-01-30T07:17:49;7.60;;;4.27;;
13408;SDS011;6775;49.574;11.170;2024-01-30T07:20:17;5.27;;;4.10;;
13408;SDS011;6775;49.574;11.170;2024-01-30T07:22:47;7.23;;;4.43;;
13408;SDS011;6775;49.574;11.170;2024-01-30T07:25:15;9.80;;;4.93;;
13408;SDS011;6775;49.574;11.170;2024-01-30T07:27:43;7.73;;;4.50;;
13408;SDS011;6775;49.574;11.170;2024-01-30T07:30:12;7.47;;;4.63;;
13408;SDS011;6775;49.574;11.170;2024-01-30T07:32:41;10.30;;;5.33;;
13408;SDS011;6775;49.574;11.170;2024-01-30T07:35:11;7.47;;;5.27;;
13408;SDS011;6775;49.574;11.170;2024-01-30T07:37:39;7.97;;;5.73;;
13408;SDS011;6775;49.574;11.170;2024-01-30T07:40:08;10.07;;;5.10;;
13408;SDS011;6775;49.574;11.170;2024-01-30T07:42:37;7.47;;;4.83;;
13408;SDS011;6775;49.574;11.170;2024-01-30T07:45:05;7.07;;;4.53;;
13408;SDS011;6775;49.574;11.170;2024-01-30T07:47:34;7.33;;;5.20;;
13408;SDS011;6775;49.574;11.170;2024-01-30T07:50:02;9.40;;;5.13;;
13408;SDS011;6775;49.574;11.170;2024-01-30T07:52:32;5.60;;;4.30;;
13408;SDS011;6775;49.574;11.170;2024-01-30T07:55:00;6.77;;;5.47;;
13408;SDS011;6775;49.574;11.170;2024-01-30T07:57:30;8.03;;;5.57;;
13408;SDS011;6775;49.574;11.170;2024-01-30T07:59:58;6.23;;;5.23;;
13408;SDS011;6775;49.574;11.170;2024-01-30T08:02:26;7.20;;;5.77;;
13408;SDS011;6775;49.574;11.170;2024-01-30T08:04:54;9.57;;;6.70;;
13408;SDS011;6775;49.574;11.170;2024-01-30T08:07:23;10.07;;;6.90;;
13408;SDS011;6775;49.574;11.170;2024-01-30T08:09:52;8.93;;;5.60;;
13408;SDS011;6775;49.574;11.170;2024-01-30T08:12:20;9.00;;;6.17;;
13408;SDS011;6775;49.574;11.170;2024-01-30T08:14:49;9.77;;;6.33;;
13408;SDS011;6775;49.574;11.170;2024-01-30T08:17:17;7.93;;;6.30;;
13408;SDS011;6775;49.574;11.170;2024-01-30T08:19:45;10.77;;;6.77;;
13408;SDS011;6775;49.574;11.170;2024-01-30T08:22:13;9.67;;;6.43;;
13408;SDS011;6775;49.574;11.170;2024-01-30T08:24:41;12.17;;;7.00;;
13408;SDS011;6775;49.574;11.170;2024-01-30T08:27:11;7.53;;;6.40;;
13408;SDS011;6775;49.574;11.170;2024-01-30T08:29:39;9.60;;;7.23;;
13408;SDS011;6775;49.574;11.170;2024-01-30T08:32:07;9.37;;;6.33;;
13408;SDS011;6775;49.574;11.170;2024-01-30T08:34:35;9.97;;;6.40;;
13408;SDS011;6775;49.574;11.170;2024-01-30T08:37:04;9.40;;;6.70;;
13408;SDS011;6775;49.574;11.170;2024-01-30T08:39:32;9.47;;;6.53;;
13408;SDS011;6775;49.574;11.170;2024-01-30T08:42:00;10.30;;;6.80;;
13408;SDS011;6775;49.574;11.170;2024-01-30T08:44:30;9.63;;;7.00;;
13408;SDS011;6775;49.574;11.170;2024-01-30T08:46:58;10.23;;;7.07;;
13408;SDS011;6775;49.574;11.170;2024-01-30T08:49:26;9.70;;;7.73;;
13408;SDS011;6775;49.574;11.170;2024-01-30T08:51:55;9.00;;;7.00;;
13408;SDS011;6775;49.574;11.170;2024-01-30T08:54:24;8.47;;;6.67;;
13408;SDS011;6775;49.574;11.170;2024-01-30T08:56:52;10.33;;;7.90;;
13408;SDS011;6775;49.574;11.170;2024-01-30T08:59:22;9.07;;;6.60;;
13408;SDS011;6775;49.574;11.170;2024-01-30T09:01:52;9.03;;;6.87;;
13408;SDS011;6775;49.574;11.170;2024-01-30T09:04:36;8.67;;;7.20;;
13408;SDS011;6775;49.574;11.170;2024-01-30T09:07:05;10.80;;;7.40;;
13408;SDS011;6775;49.574;11.170;2024-01-30T09:09:37;9.73;;;6.63;;
13408;SDS011;6775;49.574;11.170;2024-01-30T09:12:06;10.93;;;7.40;;
13408;SDS011;6775;49.574;11.170;2024-01-30T09:14:36;10.27;;;6.80;;
13408;SDS011;6775;49.574;11.170;2024-01-30T09:17:09;8.20;;;6.20;;
13408;SDS011;6775;49.574;11.170;2024-01-30T09:19:37;10.53;;;7.10;;
13408;SDS011;6775;49.574;11.170;2024-01-30T09:22:05;8.93;;;6.23;;
13408;SDS011;6775;49.574;11.170;2024-01-30T09:24:34;11.90;;;7.30;;
13408;SDS011;6775;49.574;11.170;2024-01-30T09:27:02;9.87;;;6.87;;
13408;SDS011;6775;49.574;11.170;2024-01-30T09:29:30;10.73;;;7.13;;
13408;SDS011;6775;49.574;11.170;2024-01-30T09:32:00;8.97;;;6.77;;
13408;SDS011;6775;49.574;11.170;2024-01-30T09:34:30;8.67;;;6.63;;
13408;SDS011;6775;49.574;11.170;2024-01-30T09:36:58;12.63;;;6.50;;
13408;SDS011;6775;49.574;11.170;2024-01-30T09:39:27;10.10;;;6.27;;
13408;SDS011;6775;49.574;11.170;2024-01-30T09:41:55;10.43;;;6.67;;
13408;SDS011;6775;49.574;11.170;2024-01-30T09:44:32;8.13;;;6.37;;
13408;SDS011;6775;49.574;11.170;2024-01-30T09:47:03;10.17;;;6.07;;
13408;SDS011;6775;49.574;11.170;2024-01-30T09:49:33;9.60;;;5.77;;
13408;SDS011;6775;49.574;11.170;2024-01-30T09:52:02;8.87;;;6.30;;
13408;SDS011;6775;49.574;11.170;2024-01-30T09:54:33;7.97;;;5.90;;
13408;SDS011;6775;49.574;11.170;2024-01-30T09:57:03;9.83;;;6.93;;
13408;SDS011;6775;49.574;11.170;2024-01-30T09:59:31;12.07;;;7.23;;
13408;SDS011;6775;49.574;11.170;2024-01-30T10:02:00;11.53;;;7.57;;
13408;SDS011;6775;49.574;11.170;2024-01-30T10:04:30;9.70;;;7.40;;
13408;SDS011;6775;49.574;11.170;2024-01-30T10:07:01;9.53;;;6.77;;
13408;SDS011;6775;49.574;11.170;2024-01-30T10:09:31;10.53;;;7.23;;
13408;SDS011;6775;49.574;11.170;2024-01-30T10:12:01;9.57;;;6.97;;
13408;SDS011;6775;49.574;11.170;2024-01-30T10:14:30;8.50;;;6.53;;
13408;SDS011;6775;49.574;11.170;2024-01-30T10:17:01;9.67;;;7.23;;
13408;SDS011;6775;49.574;11.170;2024-01-30T10:19:40;9.97;;;7.50;;
13408;SDS011;6775;49.574;11.170;2024-01-30T10:22:10;11.10;;;6.97;;
13408;SDS011;6775;49.574;11.170;2024-01-30T10:24:39;8.80;;;6.40;;
13408;SDS011;6775;49.574;11.170;2024-01-30T10:27:07;8.57;;;6.63;;
13408;SDS011;6775;49.574;11.170;2024-01-30T10:29:35;9.80;;;7.17;;
13408;SDS011;6775;49.574;11.170;2024-01-30T10:32:05;11.30;;;8.33;;
13408;SDS011;6775;49.574;11.170;2024-01-30T10:34:33;11.33;;;8.17;;
13408;SDS011;6775;49.574;11.170;2024-01-30T10:37:05;11.43;;;9.07;;
13408;SDS011;6775;49.574;11.170;2024-01-30T10:39:41;11.70;;;8.87;;
13408;SDS011;6775;49.574;11.170;2024-01-30T10:42:11;11.03;;;8.10;;
13408;SDS011;6775;49.574;11.170;2024-01-30T10:44:44;13.87;;;9.43;;
13408;SDS011;6775;49.574;11.170;2024-01-30T10:47:25;13.63;;;9.30;;
13408;SDS011;6775;49.574;11.170;2024-01-30T10:49:56;16.47;;;11.73;;
13408;SDS011;6775;49.574;11.170;2024-01-30T10:52:25;15.07;;;11.20;;
13408;SDS011;6775;49.574;11.170;2024-01-30T10:54:57;16.37;;;12.27;;
13408;SDS011;6775;49.574;11.170;2024-01-30T10:57:26;16.67;;;11.70;;
13408;SDS011;6775;49.574;11.170;2024-01-30T10:59:56;17.97;;;11.20;;
13408;SDS011;6775;49.574;11.170;2024-01-30T11:02:27;14.57;;;10.17;;
13408;SDS011;6775;49.574;11.170;2024-01-30T11:04:57;14.23;;;10.27;;
13408;SDS011;6775;49.574;11.170;2024-01-30T11:07:27;15.20;;;9.70;;
13408;SDS011;6775;49.574;11.170;2024-01-30T11:10:01;13.37;;;9.37;;
13408;SDS011;6775;49.574;11.170;2024-01-30T11:12:32;10.77;;;8.50;;
13408;SDS011;6775;49.574;11.170;2024-01-30T11:15:07;15.93;;;9.03;;
13408;SDS011;6775;49.574;11.170;2024-01-30T11:17:43;12.17;;;8.20;;
13408;SDS011;6775;49.574;11.170;2024-01-30T11:20:19;13.33;;;8.83;;
13408;SDS011;6775;49.574;11.170;2024-01-30T11:22:50;12.07;;;8.87;;
13408;SDS011;6775;49.574;11.170;2024-01-30T11:25:21;11.43;;;8.60;;
13408;SDS011;6775;49.574;11.170;2024-01-30T11:27:51;13.03;;;9.07;;
13408;SDS011;6775;49.574;11.170;2024-01-30T11:30:21;11.60;;;8.50;;
13408;SDS011;6775;49.574;11.170;2024-01-30T11:32:58;10.63;;;7.47;;
13408;SDS011;6775;49.574;11.170;2024-01-30T11:35:29;12.47;;;9.03;;
13408;SDS011;6775;49.574;11.170;2024-01-30T11:38:00;12.53;;;9.33;;
13408;SDS011;6775;49.574;11.170;2024-01-30T11:40:31;11.33;;;8.00;;
13408;SDS011;6775;49.574;11.170;2024-01-30T11:43:01;12.27;;;7.83;;
13408;SDS011;6775;49.574;11.170;2024-01-30T11:45:32;9.37;;;7.07;;
13408;SDS011;6775;49.574;11.170;2024-01-30T11:48:01;9.43;;;7.40;;
13408;SDS011;6775;49.574;11.170;2024-01-30T11:50:32;8.23;;;6.50;;
13408;SDS011;6775;49.574;11.170;2024-01-30T11:53:01;9.93;;;7.23;;
13408;SDS011;6775;49.574;11.170;2024-01-30T11:55:31;9.40;;;6.67;;
13408;SDS011;6775;49.574;11.170;2024-01-30T11:58:02;7.67;;;6.30;;
13408;SDS011;6775;49.574;11.170;2024-01-30T12:00:31;7.83;;;5.73;;
13408;SDS011;6775;49.574;11.170;2024-01-30T12:03:01;8.67;;;6.70;;
13408;SDS011;6775;49.574;11.170;2024-01-30T12:05:32;8.83;;;6.97;;
13408;SDS011;6775;49.574;11.170;2024-01-30T12:08:00;8.43;;;7.20;;
13408;SDS011;6775;49.574;11.170;2024-01-30T12:10:29;8.07;;;6.33;;
13408;SDS011;6775;49.574;11.170;2024-01-30T12:13:00;9.97;;;7.07;;
13408;SDS011;6775;49.574;11.170;2024-01-30T12:15:29;7.33;;;5.73;;
13408;SDS011;6775;49.574;11.170;2024-01-30T12:18:04;8.37;;;6.03;;
13408;SDS011;6775;49.574;11.170;2024-01-30T12:20:33;8.90;;;6.03;;
13408;SDS011;6775;49.574;11.170;2024-01-30T12:23:02;9.07;;;6.07;;
13408;SDS011;6775;49.574;11.170;2024-01-30T12:25:32;8.97;;;6.80;;
13408;SDS011;6775;49.574;11.170;2024-01-30T12:28:01;10.00;;;6.77;;
13408;SDS011;6775;49.574;11.170;2024-01-30T12:30:29;8.27;;;5.87;;
13408;SDS011;6775;49.574;11.170;2024-01-30T12:32:58;8.17;;;6.80;;
13408;SDS011;6775;49.574;11.170;2024-01-30T12:35:28;10.77;;;6.93;;
13408;SDS011;6775;49.574;11.170;2024-01-30T12:37:59;7.53;;;6.70;;
13408;SDS011;6775;49.574;11.170;2024-01-30T12:40:27;9.13;;;6.27;;
13408;SDS011;6775;49.574;11.170;2024-01-30T12:42:57;11.07;;;7.63;;
13408;SDS011;6775;49.574;11.170;2024-01-30T12:45:25;9.10;;;6.90;;
13408;SDS011;6775;49.574;11.170;2024-01-30T12:47:53;6.90;;;6.13;;
13408;SDS011;6775;49.574;11.170;2024-01-30T12:50:22;9.40;;;6.77;;
13408;SDS011;6775;49.574;11.170;2024-01-30T12:52:50;10.10;;;7.03;;
13408;SDS011;6775;49.574;11.170;2024-01-30T12:55:19;8.33;;;6.60;;
13408;SDS011;6775;49.574;11.170;2024-01-30T12:57:47;10.43;;;7.53;;
13408;SDS011;6775;49.574;11.170;2024-01-30T13:00:17;7.90;;;6.73;;
13408;SDS011;6775;49.574;11.170;2024-01-30T13:02:45;9.13;;;6.83;;
13408;SDS011;6775;49.574;11.170;2024-01-30T13:05:14;8.37;;;6.73;;
13408;SDS011;6775;49.574;11.170;2024-01-30T13:07:43;8.43;;;6.97;;
13408;SDS011;6775;49.574;11.170;2024-01-30T13:10:11;10.90;;;6.73;;
13408;SDS011;6775;49.574;11.170;2024-01-30T13:12:40;9.43;;;7.30;;
13408;SDS011;6775;49.574;11.170;2024-01-30T13:15:08;12.07;;;7.77;;
13408;SDS011;6775;49.574;11.170;2024-01-30T13:17:39;11.57;;;7.37;;
13408;SDS011;6775;49.574;11.170;2024-01-30T13:20:09;9.80;;;7.23;;
13408;SDS011;6775;49.574;11.170;2024-01-30T13:22:38;10.73;;;7.83;;
13408;SDS011;6775;49.574;11.170;2024-01-30T13:25:06;13.83;;;8.33;;
13408;SDS011;6775;49.574;11.170;2024-01-30T13:27:35;11.93;;;8.17;;
13408;SDS011;6775;49.574;11.170;2024-01-30T13:30:06;12.83;;;8.67;;
13408;SDS011;6775;49.574;11.170;2024-01-30T13:32:36;10.73;;;8.10;;
13408;SDS011;6775;49.574;11.170;2024-01-30T13:35:09;9.43;;;6.53;;
13408;SDS011;6775;49.574;11.170;2024-01-30T13:37:38;7.37;;;6.33;;
13408;SDS011;6775;49.574;11.170;2024-01-30T13:40:08;8.17;;;6.83;;
13408;SDS011;6775;49.574;11.170;2024-01-30T13:42:40;10.13;;;7.53;;
13408;SDS011;6775;49.574;11.170;2024-01-30T13:45:08;9.87;;;7.40;;
13408;SDS011;6775;49.574;11.170;2024-01-30T13:47:38;7.27;;;6.50;;
13408;SDS011;6775;49.574;11.170;2024-01-30T13:50:07;8.27;;;6.53;;
13408;SDS011;6775;49.574;11.170;2024-01-30T13:52:41;7.53;;;6.30;;
13408;SDS011;6775;49.574;11.170;2024-01-30T13:55:11;10.00;;;6.80;;
13408;SDS011;6775;49.574;11.170;2024-01-30T13:57:40;9.23;;;7.73;;
13408;SDS011;6775;49.574;11.170;2024-01-30T14:00:09;10.03;;;7.20;;
13408;SDS011;6775;49.574;11.170;2024-01-30T14:02:39;9.17;;;7.00;;
13408;SDS011;6775;49.574;11.170;2024-01-30T14:05:08;9.13;;;6.90;;
13408;SDS011;6775;49.574;11.170;2024-01-30T14:07:36;10.40;;;7.93;;
13408;SDS011;6775;49.574;11.170;2024-01-30T14:10:07;9.30;;;6.83;;
13408;SDS011;6775;49.574;11.170;2024-01-30T14:12:41;9.97;;;7.10;;
13408;SDS011;6775;49.574;11.170;2024-01-30T14:15:11;7.00;;;6.30;;
13408;SDS011;6775;49.574;11.170;2024-01-30T14:17:54;7.93;;;6.00;;
13408;SDS011;6775;49.574;11.170;2024-01-30T14:20:25;5.87;;;5.27;;
13408;SDS011;6775;49.574;11.170;2024-01-30T14:22:53;6.43;;;5.60;;
13408;SDS011;6775;49.574;11.170;2024-01-30T14:25:22;5.87;;;4.83;;
13408;SDS011;6775;49.574;11.170;2024-01-30T14:27:51;5.57;;;4.97;;
13408;SDS011;6775;49.574;11.170;2024-01-30T14:30:19;6.50;;;5.33;;
13408;SDS011;6775;49.574;11.170;2024-01-30T14:32:48;6.60;;;4.77;;
13408;SDS011;6775;49.574;11.170;2024-01-30T14:35:18;6.03;;;4.87;;
13408;SDS011;6775;49.574;11.170;2024-01-30T14:37:47;5.23;;;4.53;;
13408;SDS011;6775;49.574;11.170;2024-01-30T14:40:15;5.67;;;4.60;;
13408;SDS011;6775;49.574;11.170;2024-01-30T14:42:44;7.27;;;4.90;;
13408;SDS011;6775;49.574;11.170;2024-01-30T14:45:13;7.17;;;4.73;;
13408;SDS011;6775;49.574;11.170;2024-01-30T14:47:42;8.33;;;6.13;;
13408;SDS011;6775;49.574;11.170;2024-01-30T14:50:10;6.37;;;5.30;;
13408;SDS011;6775;49.574;11.170;2024-01-30T14:52:40;10.13;;;7.30;;
13408;SDS011;6775;49.574;11.170;2024-01-30T14:55:08;8.90;;;6.40;;
13408;SDS011;6775;49.574;11.170;2024-01-30T14:57:36;8.50;;;6.90;;